Hillsboro, New Hampshire
Current Conditions -  °F | °C
As of 2:51 PM on Thursday 18 Dec 2014 (Local Time) from KCON Reporting Station
Overcast Overcast  
Wind Chill:   Ceiling: 2900
Heat Index:   Visibility: 10mi
Dew Point: -2°   Wind: 9mph
Humidity: 68%   Direction: 290°WNW
Pressure: 29.77"   Gusts: 18mph
Location:  43.12°N, 71.9°W
Report Text: KCON 181951Z AUTO 29008G16KT 10SM OVC029 03/M02 A2977 RMK AO2 SLP083 T00331022
Loading
Personal Weather Stations






























Interactive Weather Map New forecast layout! Learn more

10-Day Weather Forecast

Advertisements
Track Severe Weather on mobile